Archival Weather

Al Kharj

Al Kharj, Saudi Arabia (OEKJ)

Report from: Thursday, September 21, 2023 5:00 AM UTC
Current time: Friday, February 23, 2024 8:52 PM UTC

Current weather – Weather history – Daily summaries
Weather forecast

Temperature32.0°C (89.6°F)
Heat index29.8°C (85.7°F)
Dew point3.0°C (37.4°F)
Winds 4 kts (2.1 m/s, 4.6 mph) West (260°)
Clouds Sky clear
Altimeter29.94 in.Hg (1014 mB)
Relative humidity16 %
Density altitude2,032 ft. (619 m)
Remarks Ceiling and visibility OK
Flight conditions Visual Meteorological Conditions
Raw dataOEKJ 210500Z 26004KT CAVOK 32/03 Q1014
An error has occurred. This application may no longer respond until reloaded. Reload 🗙